Portada
METAR-TAF:

METAR-TAF

Aeropuertos :

Harry P. Williams Memorial Airport

Patterson, Luisiana, Estados Unidos

latitud: 29-43N, longitud: 091-20W, altitud: 3 m

Observación

El informe se hizo hace 41 minutos, a las 17:56 UTC
Viento 7 kt del norte
Temperatura 13°C
Humedad 94%
Presión 1017 hPa
Visibilidad: 16.1 km
Cielo cubierto a una altura de 1100 ft

METAR: KPTN 271756Z AUTO 01007KT 10SM OVC011 13/12 A3003 RMK AO2 SLP169 T01330122 10133 20111 58007

Hora: 12:37 (18:37 UTC)


TAF: falta

Observaciones y pronósticos meteorológicos de más de 4000 aeropuertos (mensajes METAR y TAF).

Los puntos amarillos y rojos representan las estaciones disponibles.

Ponga el ratón en el punto deseado para ver el nombre de la estación.

Haga clic para ver las observaciones y los pronósticos meteorológicos.

Para cambiar el mapa : haga clic en los botones verdes con una cruz de color negro para hacer un zoom, en el botón verde con un guión para alejar o en las flechas verdes para mapas adyacentes.


METAR-TAF: